createdAt,value
2023-03-26T00:03:57.346Z,96854.84
2023-03-26T00:07:58.763Z,96860.84
2023-03-26T00:12:00.138Z,96860.63
2023-03-26T00:16:03.131Z,96868.59
2023-03-26T00:20:04.979Z,96875.81
2023-03-26T00:24:07.434Z,96877.66
2023-03-26T00:28:09.378Z,96879.81
2023-03-26T00:32:12.134Z,96892.34
2023-03-26T00:36:14.818Z,96887.66
2023-03-26T00:40:16.327Z,96887.66
2023-03-26T00:44:17.695Z,96884.63
2023-03-26T00:48:24.541Z,96883.91
2023-03-26T00:52:33.143Z,96881.34
2023-03-26T00:56:34.564Z,96887.91
2023-03-26T01:00:37.272Z,96881.88
2023-03-26T01:04:40.240Z,96892.56
2023-03-26T01:08:42.554Z,96883.94
2023-03-26T01:12:43.953Z,96885.78
2023-03-26T01:16:48.453Z,96883.03
2023-03-26T01:20:51.526Z,96886.81
2023-03-26T01:24:54.342Z,96875.75
2023-03-26T01:28:56.692Z,96877.03
2023-03-26T01:33:01.909Z,96877.97
2023-03-26T01:37:08.966Z,96870.31
2023-03-26T01:41:13.043Z,96878.78
2023-03-26T01:45:16.027Z,96872.66
2023-03-26T01:49:18.130Z,96867.78
2023-03-26T01:53:19.622Z,96862.59
2023-03-26T01:57:29.423Z,96875.00
2023-03-26T02:01:36.323Z,96868.78
2023-03-26T02:05:42.136Z,96860.59
2023-03-26T02:09:47.020Z,96855.28
2023-03-26T02:13:50.568Z,96859.44
2023-03-26T02:17:52.069Z,96853.19
2023-03-26T02:21:53.524Z,96849.03
2023-03-26T02:25:55.120Z,96851.19
2023-03-26T02:29:58.074Z,96847.34
2023-03-26T02:33:59.428Z,96846.94
2023-03-26T02:38:00.769Z,96845.31
2023-03-26T02:42:02.155Z,96840.22
2023-03-26T02:46:05.156Z,96841.28
2023-03-26T02:50:06.986Z,96825.94
2023-03-26T02:54:08.427Z,96824.84
2023-03-26T02:58:09.830Z,96819.97
2023-03-26T03:02:12.594Z,96810.88
2023-03-26T03:06:14.586Z,96816.19
2023-03-26T03:10:16.150Z,96810.59
2023-03-26T03:14:17.558Z,96804.66
2023-03-26T03:18:20.348Z,96802.84
2023-03-26T03:22:21.704Z,96803.94
2023-03-26T03:26:23.888Z,96793.66
2023-03-26T03:30:25.433Z,96799.25
2023-03-26T03:34:28.185Z,96792.94
2023-03-26T03:38:29.580Z,96797.91
2023-03-26T03:42:30.977Z,96793.31
2023-03-26T03:46:32.503Z,96786.72
2023-03-26T03:50:35.978Z,96781.94
2023-03-26T03:54:37.477Z,96783.34
2023-03-26T03:58:38.837Z,96789.06
2023-03-26T04:02:40.336Z,96779.91
2023-03-26T04:06:43.466Z,96773.56
2023-03-26T04:10:44.882Z,96766.25
2023-03-26T04:14:46.218Z,96757.16
2023-03-26T04:18:47.568Z,96756.63
2023-03-26T04:22:50.271Z,96759.44
2023-03-26T04:26:51.667Z,96760.22
2023-03-26T04:30:53.381Z,96760.25
2023-03-26T04:34:54.744Z,96764.41
2023-03-26T04:38:58.147Z,96763.94
2023-03-26T04:42:59.501Z,96764.22
2023-03-26T04:47:00.856Z,96761.94
2023-03-26T04:51:02.403Z,96768.97
2023-03-26T04:55:07.507Z,96761.22
2023-03-26T04:59:10.675Z,96757.94
2023-03-26T05:03:12.216Z,96759.91
2023-03-26T05:07:16.381Z,96749.53
2023-03-26T05:11:19.085Z,96756.34
2023-03-26T05:15:20.546Z,96754.47
2023-03-26T05:19:21.900Z,96752.88
2023-03-26T05:23:23.284Z,96749.22
2023-03-26T05:27:26.006Z,96752.19
2023-03-26T05:31:27.453Z,96759.31
2023-03-26T05:35:28.803Z,96748.00
2023-03-26T05:39:30.182Z,96751.22
2023-03-26T05:43:33.209Z,96740.50
2023-03-26T05:47:34.956Z,96735.47
2023-03-26T05:51:36.458Z,96733.78
2023-03-26T05:55:37.786Z,96727.03
2023-03-26T05:59:40.550Z,96714.13
2023-03-26T06:03:41.997Z,96717.47
2023-03-26T06:07:43.398Z,96719.06
2023-03-26T06:11:44.853Z,96720.72
2023-03-26T06:15:47.606Z,96702.47
2023-03-26T06:19:49.110Z,96695.53
2023-03-26T06:23:50.525Z,96678.34
2023-03-26T06:27:51.928Z,96681.00
2023-03-26T06:31:54.648Z,96688.13
2023-03-26T06:35:56.067Z,96677.19
2023-03-26T06:39:57.527Z,96670.97
2023-03-26T06:43:58.926Z,96661.69
2023-03-26T06:48:01.770Z,96655.97
2023-03-26T06:52:03.389Z,96652.16
2023-03-26T06:56:06.524Z,96649.16
2023-03-26T07:00:09.798Z,96652.72
2023-03-26T07:04:12.552Z,96659.84
2023-03-26T07:08:13.985Z,96638.84
2023-03-26T07:12:15.330Z,96637.56
2023-03-26T07:16:16.809Z,96644.75
2023-03-26T07:20:19.561Z,96639.03
2023-03-26T07:24:21.226Z,96623.28
2023-03-26T07:28:25.957Z,96618.13
2023-03-26T07:32:29.796Z,96612.28
2023-03-26T07:36:34.214Z,96597.53
2023-03-26T07:40:49.557Z,96597.34
2023-03-26T07:44:56.204Z,96593.56
2023-03-26T07:48:57.843Z,96597.31
2023-03-26T07:53:00.894Z,96586.72
2023-03-26T07:57:04.740Z,96596.56
2023-03-26T08:01:08.440Z,96584.81
2023-03-26T08:05:14.009Z,96583.59
2023-03-26T08:09:20.958Z,96573.66
2023-03-26T08:13:24.765Z,96553.53
2023-03-26T08:17:31.360Z,96545.59
2023-03-26T08:21:35.682Z,96543.66
2023-03-26T08:25:43.496Z,96538.28
2023-03-26T08:29:50.110Z,96533.91
2023-03-26T08:33:51.518Z,96524.91
2023-03-26T08:37:53.033Z,96523.53
2023-03-26T08:42:09.325Z,96520.78
2023-03-26T08:46:28.604Z,96522.88
2023-03-26T08:50:50.788Z,96526.59
2023-03-26T08:55:10.247Z,96518.88
2023-03-26T08:59:20.156Z,96519.34
2023-03-26T09:03:36.399Z,96505.88
2023-03-26T09:07:54.205Z,96494.69
2023-03-26T09:12:14.591Z,96481.41
2023-03-26T09:16:27.258Z,96472.69
2023-03-26T09:20:47.203Z,96467.81
2023-03-26T09:25:12.340Z,96444.59
2023-03-26T09:29:33.200Z,96444.09
2023-03-26T09:33:58.880Z,96427.38
2023-03-26T09:38:00.841Z,96419.28
2023-03-26T09:42:08.885Z,96425.91
2023-03-26T09:46:18.740Z,96413.34
2023-03-26T09:50:29.590Z,96411.56
2023-03-26T09:54:45.871Z,96396.66
2023-03-26T09:58:59.931Z,96397.47
2023-03-26T10:03:08.273Z,96397.47
2023-03-26T10:07:17.679Z,96384.53
2023-03-26T10:11:23.522Z,96380.97
2023-03-26T10:15:31.903Z,96372.78
2023-03-26T10:19:43.363Z,96370.38
2023-03-26T10:24:02.245Z,96371.38
2023-03-26T10:28:25.980Z,96374.16
2023-03-26T10:32:34.447Z,96373.19
2023-03-26T10:36:36.254Z,96377.41
2023-03-26T10:40:41.354Z,96373.50
2023-03-26T10:44:57.594Z,96375.13
2023-03-26T10:49:08.621Z,96372.19
2023-03-26T10:53:13.244Z,96370.72
2023-03-26T10:57:22.529Z,96380.97
2023-03-26T11:01:32.032Z,96376.78
2023-03-26T11:05:46.286Z,96367.50
2023-03-26T11:09:51.139Z,96367.50
2023-03-26T11:13:55.900Z,96370.75
2023-03-26T11:18:03.587Z,96374.50
2023-03-26T11:22:15.227Z,96385.38
2023-03-26T11:26:17.221Z,96375.59
2023-03-26T11:30:23.509Z,96380.88
2023-03-26T11:34:27.867Z,96379.34
2023-03-26T11:38:32.290Z,96376.22
2023-03-26T11:42:33.698Z,96379.97
2023-03-26T11:46:37.906Z,96370.69
2023-03-26T11:50:41.347Z,96372.41
2023-03-26T11:54:44.101Z,96373.00
2023-03-26T11:58:49.282Z,96359.66
2023-03-26T12:02:55.622Z,96358.28
2023-03-26T12:06:58.484Z,96361.53
2023-03-26T12:11:04.036Z,96346.22
2023-03-26T12:15:12.535Z,96320.75
2023-03-26T12:19:18.764Z,96299.72
2023-03-26T12:23:34.789Z,96296.78
2023-03-26T12:27:37.751Z,96282.31
2023-03-26T12:31:51.949Z,96279.91
2023-03-26T12:35:54.203Z,96273.44
2023-03-26T12:40:10.588Z,96267.28
2023-03-26T12:44:55.429Z,96268.09
2023-03-26T12:48:43.214Z,96259.81
2023-03-26T12:53:01.411Z,96260.28
2023-03-26T12:57:12.920Z,96248.38
2023-03-26T13:01:22.266Z,96263.03
2023-03-26T13:05:32.663Z,96235.19
2023-03-26T13:09:41.898Z,96259.78
2023-03-26T13:13:51.319Z,96243.13
2023-03-26T13:18:00.789Z,96226.69
2023-03-26T13:22:10.279Z,96223.19
2023-03-26T13:26:18.087Z,96218.81
2023-03-26T13:30:22.934Z,96216.19
2023-03-26T13:34:32.903Z,96206.13
2023-03-26T13:38:40.955Z,96200.09
2023-03-26T13:42:48.387Z,96194.28
2023-03-26T13:46:51.268Z,96189.88
2023-03-26T13:50:59.289Z,96181.97
2023-03-26T13:55:16.349Z,96172.84
2023-03-26T13:59:20.834Z,96167.25
2023-03-26T14:03:25.550Z,96166.38
2023-03-26T14:07:31.877Z,96162.78
2023-03-26T14:11:38.531Z,96170.53
2023-03-26T14:15:41.903Z,96151.78
2023-03-26T14:19:56.972Z,96160.34
2023-03-26T14:24:27.685Z,96146.03
2023-03-26T14:28:37.926Z,96131.47
2023-03-26T14:32:59.073Z,96136.16
2023-03-26T14:37:12.920Z,96133.78
2023-03-26T14:41:21.694Z,96121.56
2023-03-26T14:45:41.050Z,96109.94
2023-03-26T14:50:12.293Z,96106.53
2023-03-26T14:54:16.986Z,96101.47
2023-03-26T14:58:31.942Z,96087.63
2023-03-26T15:02:54.329Z,96090.28
2023-03-26T15:07:14.713Z,96078.31
2023-03-26T15:11:22.243Z,96074.59
2023-03-26T15:16:00.987Z,96082.91
2023-03-26T15:20:20.132Z,96090.84
2023-03-26T15:24:36.659Z,96095.91
2023-03-26T15:29:01.549Z,96090.97
2023-03-26T15:33:36.051Z,96077.91
2023-03-26T15:37:52.305Z,96069.19
2023-03-26T15:41:58.073Z,96085.91
2023-03-26T15:46:12.759Z,96091.72
2023-03-26T15:50:18.981Z,96079.06
2023-03-26T15:54:28.232Z,96088.75
2023-03-26T15:58:35.593Z,96104.25
2023-03-26T16:02:41.686Z,96101.28
2023-03-26T16:06:50.840Z,96106.94
2023-03-26T16:10:53.972Z,96106.91
2023-03-26T16:15:19.902Z,96099.34
2023-03-26T16:19:45.882Z,96102.63
2023-03-26T16:23:55.239Z,96099.50
2023-03-26T16:28:19.471Z,96099.88
2023-03-26T16:32:25.107Z,96094.19
2023-03-26T16:36:30.513Z,96092.06
2023-03-26T16:40:35.313Z,96087.88
2023-03-26T16:44:43.691Z,96083.53
2023-03-26T16:48:50.943Z,96077.50
2023-03-26T16:52:58.070Z,96082.50
2023-03-26T16:57:00.689Z,96072.56
2023-03-26T17:01:07.005Z,96071.56
2023-03-26T17:05:16.238Z,96070.69
2023-03-26T17:09:22.640Z,96063.50
2023-03-26T17:13:27.952Z,96067.56
2023-03-26T17:17:35.812Z,96064.50
2023-03-26T17:21:45.970Z,96067.31
2023-03-26T17:25:57.245Z,96061.69
2023-03-26T17:30:02.551Z,96061.91
2023-03-26T17:34:24.922Z,96061.81
2023-03-26T17:38:44.788Z,96067.63
2023-03-26T17:43:01.608Z,96083.69
2023-03-26T17:47:04.477Z,96079.34
2023-03-26T17:51:13.182Z,96083.56
2023-03-26T17:55:16.601Z,96071.75
2023-03-26T17:59:20.618Z,96067.03
2023-03-26T18:03:24.048Z,96077.88
2023-03-26T18:07:55.453Z,96070.44
2023-03-26T18:12:04.246Z,96069.28
2023-03-26T18:16:12.470Z,96070.69
2023-03-26T18:20:21.014Z,96087.75
2023-03-26T18:24:24.419Z,96069.22
2023-03-26T18:28:30.259Z,96078.72
2023-03-26T18:32:33.179Z,96071.69
2023-03-26T18:36:34.630Z,96083.50
2023-03-26T18:40:40.305Z,96078.97
2023-03-26T18:44:41.716Z,96075.75
2023-03-26T18:48:46.132Z,96072.84
2023-03-26T18:52:47.729Z,96076.91
2023-03-26T18:56:49.535Z,96077.91
2023-03-26T19:00:51.609Z,96072.22
2023-03-26T19:04:54.516Z,96084.34
2023-03-26T19:08:56.410Z,96074.38
2023-03-26T19:12:58.666Z,96069.38
2023-03-26T19:17:01.446Z,96057.72
2023-03-26T19:21:04.368Z,96054.56
2023-03-26T19:25:06.517Z,96065.22
2023-03-26T19:29:12.140Z,96064.09
2023-03-26T19:33:15.099Z,96067.69
2023-03-26T19:37:19.176Z,96065.09
2023-03-26T19:41:21.708Z,96058.13
2023-03-26T19:45:23.446Z,96069.31
2023-03-26T19:49:28.390Z,96066.09
2023-03-26T19:53:32.554Z,96065.75
2023-03-26T19:57:34.083Z,96063.16
2023-03-26T20:01:35.451Z,96060.53
2023-03-26T20:05:36.797Z,96062.19
2023-03-26T20:09:39.505Z,96070.91
2023-03-26T20:13:40.874Z,96068.34
2023-03-26T20:17:42.234Z,96063.94
2023-03-26T20:21:43.661Z,96069.63
2023-03-26T20:25:48.093Z,96081.44
2023-03-26T20:29:49.481Z,96082.59
2023-03-26T20:33:51.684Z,96086.81
2023-03-26T20:37:53.023Z,96091.47
2023-03-26T20:41:55.735Z,96098.91
2023-03-26T20:45:57.196Z,96101.66
2023-03-26T20:49:58.810Z,96106.72
2023-03-26T20:54:00.179Z,96101.66
2023-03-26T20:58:04.076Z,96106.06
2023-03-26T21:02:05.534Z,96106.34
2023-03-26T21:06:08.345Z,96105.41
2023-03-26T21:10:11.113Z,96107.94
2023-03-26T21:14:16.875Z,96108.06
2023-03-26T21:18:18.522Z,96101.75
2023-03-26T21:22:26.045Z,96099.81
2023-03-26T21:26:29.738Z,96105.00
2023-03-26T21:30:32.941Z,96113.09
2023-03-26T21:34:35.078Z,96113.25
2023-03-26T21:38:36.765Z,96120.31
2023-03-26T21:42:38.450Z,96122.09
2023-03-26T21:46:42.716Z,96117.72
2023-03-26T21:50:44.581Z,96121.47
2023-03-26T21:54:46.149Z,96123.53
2023-03-26T21:58:50.049Z,96122.88
2023-03-26T22:03:03.818Z,96131.78
2023-03-26T22:07:09.660Z,96123.53
2023-03-26T22:11:11.593Z,96127.22
2023-03-26T22:15:13.315Z,96131.25
2023-03-26T22:19:15.998Z,96132.25
2023-03-26T22:23:17.338Z,96140.31
2023-03-26T22:27:18.706Z,96140.13
2023-03-26T22:31:20.078Z,96140.97
2023-03-26T22:35:22.848Z,96143.06
2023-03-26T22:39:24.249Z,96140.25
2023-03-26T22:43:25.616Z,96132.06
2023-03-26T22:47:27.013Z,96136.41
2023-03-26T22:51:31.679Z,96140.63
2023-03-26T22:55:33.113Z,96138.22
2023-03-26T22:59:34.449Z,96129.13
2023-03-26T23:03:36.400Z,96131.41
2023-03-26T23:07:39.199Z,96134.16
2023-03-26T23:11:40.534Z,96145.31
2023-03-26T23:15:41.875Z,96143.97
2023-03-26T23:19:43.216Z,96144.81
2023-03-26T23:23:46.048Z,96144.66
2023-03-26T23:27:47.398Z,96150.31
2023-03-26T23:31:48.811Z,96150.16
2023-03-26T23:35:50.933Z,96151.72
2023-03-26T23:39:53.706Z,96151.50
2023-03-26T23:43:55.846Z,96147.66
2023-03-26T23:47:57.397Z,96148.34
2023-03-26T23:51:58.741Z,96158.41
2023-03-26T23:56:01.602Z,96148.84
